Disautel, Washington
Current Conditions -  °F | °C
As of 9:53 PM on Tuesday 21 Oct 2014 (Local Time) from KOMK Reporting Station
Scattered Clouds Scattered Clouds  
Wind Chill: 52°   Ceiling: Unl
Heat Index: 52°   Visibility: 10mi
Dew Point: 40°   Wind: 7mph
Humidity: 63%   Direction: 190°S
Pressure: 29.88"   Gusts: NA
Location:  48.4274°N, 119.524°W
Report Text: KOMK 220453Z AUTO 19006KT 10SM SCT080 11/04 A2988 RMK AO2 SLP120 T01110044
Loading
Personal Weather Stations






























Interactive Weather Map New forecast layout! Learn more

10-Day Weather Forecast

Advertisements
Track Severe Weather on mobile